Burgtor — V2OR7 — position and weather

sailwx.info

Track history (hours):
 
Tides and Currents Weather Stations Pressure Air Temp Water Temp Dewpoint Dewpoint Depression Visibility Wind Speed Wind Dir Waves Ship Positions

Burgtor

Last reported at 2015-Jan-26 10:26 UTC. Time now 2015-Jan-27 05:52 UTC.
Position N 55°11' E 018°32'.

Length 87 m; draft 5.3 m.

Type: Cargo ship. MMSI: 304665000.

Date/timePositionNaut miles runAvg speedWind from/ knotsBaromVisibWave heightAir tempDewpointWater temp
2015-Jan-26 10:26N 55°11' E 018°32'  
2015-Jan-24 01:15N 54°37' E 014°13'6 9.0
2015-Jan-24 00:33N 54°39' E 014°03'10 9.7
2015-Jan-23 23:33N 54°41' E 013°46'1010.0
2015-Jan-23 22:33N 54°43' E 013°29'9 9.0
2015-Jan-23 21:33N 54°42' E 013°14'9 9.1
2015-Jan-23 20:33N 54°41' E 012°58'9 9.0
2015-Jan-23 19:33N 54°40' E 012°43'9 9.3
2015-Jan-23 18:33N 54°35' E 012°29'9 8.8
2015-Jan-23 17:33N 54°30' E 012°16'8 8.1
2015-Jan-23 16:33N 54°23' E 012°09'11 8.9
2015-Jan-23 15:20N 54°13' E 012°05'4 4.5
2015-Jan-23 14:27N 54°09' E 012°07'0 0.0
2015-Jan-23 13:33N 54°09' E 012°07'0 0.0
2015-Jan-23 12:24N 54°09' E 012°07'0 0.0
2015-Jan-23 11:24N 54°09' E 012°07'0 0.0
2015-Jan-23 10:21N 54°09' E 012°07'0 0.0
2015-Jan-23 09:33N 54°09' E 012°07'0 0.0
2015-Jan-23 08:21N 54°09' E 012°07'0 0.0
2015-Jan-23 07:33N 54°09' E 012°07'0 0.0
2015-Jan-23 06:27N 54°09' E 012°07'0 0.0
2015-Jan-23 05:03N 54°09' E 012°07'0 0.0
2015-Jan-23 04:33N 54°09' E 012°07'0 0.0
2015-Jan-23 03:21N 54°09' E 012°07'0 0.0
2015-Jan-23 02:33N 54°09' E 012°07'0 0.0
2015-Jan-23 01:33N 54°09' E 012°07'0 0.0
2015-Jan-23 00:27N 54°09' E 012°07'0 0.0
2015-Jan-22 23:33N 54°09' E 012°07'0 0.0
2015-Jan-22 22:33N 54°09' E 012°07'0 0.0
2015-Jan-22 17:27N 54°09' E 012°07'0 0.0
2015-Jan-22 16:27N 54°09' E 012°07'0 0.0
2015-Jan-22 15:12N 54°09' E 012°07'0 0.0
2015-Jan-22 14:33N 54°09' E 012°07'0 0.0
2015-Jan-22 13:30N 54°09' E 012°07'0 0.0
2015-Jan-22 12:33N 54°09' E 012°07'0 0.0
2015-Jan-22 11:32N 54°09' E 012°07'0 0.0
2015-Jan-22 10:33N 54°09' E 012°07'0 0.0
2015-Jan-22 09:32N 54°09' E 012°07'0 0.0
2015-Jan-22 08:32N 54°09' E 012°07'0 0.0
2015-Jan-22 07:32N 54°09' E 012°07'0 0.0
2015-Jan-22 06:29N 54°09' E 012°07'0 0.0
2015-Jan-22 05:32N 54°09' E 012°07'0 0.0
2015-Jan-22 04:32N 54°09' E 012°07'0 0.0
2015-Jan-22 03:32N 54°09' E 012°07'0 0.0
2015-Jan-22 02:32N 54°09' E 012°07'0 0.0
2015-Jan-22 01:14N 54°09' E 012°07'0 0.0
2015-Jan-22 00:08N 54°09' E 012°07'0 0.0
2015-Jan-21 23:32N 54°09' E 012°07'0 0.0
2015-Jan-21 22:50N 54°09' E 012°07'0 0.0
2015-Jan-21 22:44N 54°09' E 012°07'0 0.0
2015-Jan-21 22:32N 54°09' E 012°07'0 0.0
2015-Jan-21 21:14N 54°09' E 012°07'0 0.0
2015-Jan-21 20:32N 54°09' E 012°07'0 0.0
2015-Jan-21 19:26N 54°09' E 012°07'0 0.0
2015-Jan-21 18:32N 54°09' E 012°07'0 0.0
2015-Jan-21 17:29N 54°09' E 012°07'0 0.0
2015-Jan-21 16:32N 54°09' E 012°07'0 0.0
2015-Jan-21 15:32N 54°09' E 012°07'0 0.0
2015-Jan-21 14:29N 54°09' E 012°07'0 0.0
2015-Jan-21 12:20N 54°09' E 012°07'0 0.0
2015-Jan-21 11:23N 54°09' E 012°07'0 0.0
2015-Jan-21 10:23N 54°09' E 012°07'1 0.9
2015-Jan-21 09:33N 54°10' E 012°06'6 5.6
2015-Jan-21 08:33N 54°14' E 012°01'0 0.0
2015-Jan-21 07:17N 54°14' E 012°01'0 0.0
2015-Jan-21 06:32N 54°14' E 012°01'0 0.0
2015-Jan-21 05:32N 54°14' E 012°01'0 0.1
2015-Jan-21 04:11N 54°14' E 012°01'0 0.0
2015-Jan-21 03:23N 54°14' E 012°01'0 0.0
2015-Jan-21 02:32N 54°14' E 012°01'0 0.0
2015-Jan-21 00:32N 54°14' E 012°01'0 0.0
2015-Jan-20 23:20N 54°14' E 012°01'0 0.0
2015-Jan-20 21:31N 54°14' E 012°01'0 0.0
2015-Jan-20 20:14N 54°14' E 012°01'0 0.0
2015-Jan-20 19:08N 54°14' E 012°01'0 0.0
2015-Jan-20 17:22N 54°14' E 012°01'0 0.0
2015-Jan-20 16:28N 54°14' E 012°01'0 0.0
2015-Jan-20 15:13N 54°14' E 012°01'0 0.0
2015-Jan-20 14:28N 54°14' E 012°01'0 0.0
2015-Jan-20 13:13N 54°14' E 012°01'0 0.0
2015-Jan-20 12:31N 54°14' E 012°01'0 0.0
2015-Jan-20 11:07N 54°14' E 012°01'0 0.0
2015-Jan-20 09:28N 54°14' E 012°01'0 0.0
2015-Jan-20 08:31N 54°14' E 012°01'0 0.0
2015-Jan-20 07:19N 54°14' E 012°01'0 0.0
2015-Jan-20 06:25N 54°14' E 012°01'0 0.0
2015-Jan-20 05:25N 54°14' E 012°01'0 0.0
2015-Jan-20 04:31N 54°14' E 012°01'0 0.0
2015-Jan-20 02:07N 54°14' E 012°01'0 0.0
2015-Jan-20 01:22N 54°14' E 012°01'0 0.0
2015-Jan-20 00:31N 54°14' E 012°01'0 0.0
2015-Jan-19 23:31N 54°14' E 012°01'0 0.0
2015-Jan-19 22:25N 54°14' E 012°01'0 0.0
2015-Jan-19 21:22N 54°14' E 012°01'0 0.0
2015-Jan-19 20:13N 54°14' E 012°01'0 0.0
2015-Jan-19 18:31N 54°14' E 012°01'0 0.0
2015-Jan-19 17:16N 54°14' E 012°01'0 0.0
2015-Jan-19 16:25N 54°14' E 012°01'0 0.0
2015-Jan-19 15:10N 54°14' E 012°01'0 0.0
2015-Jan-19 13:25N 54°14' E 012°01'0 0.0
2015-Jan-19 12:28N 54°14' E 012°01'0 0.0
2015-Jan-19 11:09N 54°14' E 012°01'0 0.0
2015-Jan-19 10:33N 54°14' E 012°01'0 0.0
2015-Jan-19 09:33N 54°14' E 012°01'0 0.0
2015-Jan-19 08:30N 54°14' E 012°01'0 0.0
2015-Jan-19 07:33N 54°14' E 012°01'0 0.0
2015-Jan-19 06:33N 54°14' E 012°01'0 0.0
2015-Jan-19 04:27N 54°14' E 012°01'0 0.0
2015-Jan-19 03:27N 54°14' E 012°01'0 0.0
2015-Jan-19 01:30N 54°14' E 012°01'0 0.0
2015-Jan-19 00:30N 54°14' E 012°01'0 0.0
2015-Jan-18 23:33N 54°14' E 012°01'0 0.0
2015-Jan-18 21:27N 54°14' E 012°01'0 0.0
2015-Jan-18 20:33N 54°14' E 012°01'0 0.0
2015-Jan-18 19:33N 54°14' E 012°01'0 0.0
2015-Jan-18 18:24N 54°14' E 012°01'0 0.0
2015-Jan-18 17:27N 54°14' E 012°01'0 0.0
2015-Jan-18 16:12N 54°14' E 012°01'2 2.2
2015-Jan-18 15:31N 54°15' E 011°59'8 8.5
2015-Jan-18 14:32N 54°22' E 011°50'8 8.3
2015-Jan-18 13:33N 54°26' E 011°39'9 8.6
2015-Jan-18 12:33N 54°31' E 011°26'8 8.2
2015-Jan-18 11:33N 54°34' E 011°13'25 8.5
2015-Jan-18 08:33N 54°31' E 010°29'9 8.9
2015-Jan-18 07:33N 54°27' E 010°16'7 6.9
2015-Jan-18 06:33N 54°22' E 010°09'0 0.0
2015-Jan-18 05:33N 54°22' E 010°09'7 6.6
2015-Jan-18 04:33N 54°21' E 009°58'8 7.8
2015-Jan-18 03:33N 54°20' E 009°44'21 7.1
2015-Jan-18 00:33N 54°05' E 009°19'7 7.0
2015-Jan-17 23:33N 53°58' E 009°15'6 5.9
2015-Jan-17 22:33N 53°54' E 009°09'2 1.8
2015-Jan-17 21:33N 53°53' E 009°06'1 1.0
2015-Jan-17 20:31N 53°53' E 009°04'0 0.0
2015-Jan-17 19:34N 53°53' E 009°04'0 0.0
2015-Jan-17 18:34N 53°53' E 009°04'0 0.1
2015-Jan-17 17:30N 53°53' E 009°04'1 1.1
2015-Jan-17 16:33N 53°52' E 009°02'6 5.6
2015-Jan-17 15:34N 53°50' E 008°53'5 4.9
2015-Jan-17 14:34N 53°51' E 008°45'4 4.4
2015-Jan-17 13:34N 53°55' E 008°41'5 4.9
2015-Jan-17 12:33N 53°58' E 008°34'7 7.3
2015-Jan-17 11:33N 53°59' E 008°22'7 7.4
2015-Jan-17 10:33N 53°59' E 008°10'8 7.9
2015-Jan-17 09:33N 53°57' E 007°57'8 8.4
2015-Jan-17 08:33N 53°55' E 007°43'9 9.0
2015-Jan-17 07:33N 53°53' E 007°28'11 9.2
2015-Jan-17 06:22N 53°51' E 007°10'38 9.6
2015-Jan-17 02:25N 53°41' E 006°08'8 9.3
2015-Jan-17 01:33N 53°39' E 005°55'9 8.8
2015-Jan-17 00:34N 53°36' E 005°41'9 8.6
2015-Jan-16 23:34N 53°33' E 005°27'8 8.3
2015-Jan-16 22:34N 53°31' E 005°14'8 8.4
2015-Jan-16 21:34N 53°28' E 005°01'8 8.3
2015-Jan-16 20:34N 53°25' E 004°48'8 7.2
2015-Jan-16 19:29N 53°19' E 004°39'  
Track history (hours):
 
Tides and Currents Weather Stations Pressure Air Temp Water Temp Dewpoint Dewpoint Depression Visibility Wind Speed Wind Dir Waves Ship Positions

Burgtor

Last reported at 2015-Jan-26 10:26 UTC. Time now 2015-Jan-27 05:52 UTC.
Position N 55°11' E 018°32'.

Length 87 m; draft 5.3 m.

Type: Cargo ship. MMSI: 304665000.

Date/timePositionNaut miles runAvg speedWind from/ knotsBaromVisibWave heightAir tempDewpointWater temp
2015-Jan-26 10:26N 55°11' E 018°32'  
2015-Jan-24 01:15N 54°37' E 014°13'6 9.0
2015-Jan-24 00:33N 54°39' E 014°03'10 9.7
2015-Jan-23 23:33N 54°41' E 013°46'1010.0
2015-Jan-23 22:33N 54°43' E 013°29'9 9.0
2015-Jan-23 21:33N 54°42' E 013°14'9 9.1
2015-Jan-23 20:33N 54°41' E 012°58'9 9.0
2015-Jan-23 19:33N 54°40' E 012°43'9 9.3
2015-Jan-23 18:33N 54°35' E 012°29'9 8.8
2015-Jan-23 17:33N 54°30' E 012°16'8 8.1
2015-Jan-23 16:33N 54°23' E 012°09'11 8.9
2015-Jan-23 15:20N 54°13' E 012°05'4 4.5
2015-Jan-23 14:27N 54°09' E 012°07'0 0.0
2015-Jan-23 13:33N 54°09' E 012°07'0 0.0
2015-Jan-23 12:24N 54°09' E 012°07'0 0.0
2015-Jan-23 11:24N 54°09' E 012°07'0 0.0
2015-Jan-23 10:21N 54°09' E 012°07'0 0.0
2015-Jan-23 09:33N 54°09' E 012°07'0 0.0
2015-Jan-23 08:21N 54°09' E 012°07'0 0.0
2015-Jan-23 07:33N 54°09' E 012°07'0 0.0
2015-Jan-23 06:27N 54°09' E 012°07'0 0.0
2015-Jan-23 05:03N 54°09' E 012°07'0 0.0
2015-Jan-23 04:33N 54°09' E 012°07'0 0.0
2015-Jan-23 03:21N 54°09' E 012°07'0 0.0
2015-Jan-23 02:33N 54°09' E 012°07'0 0.0
2015-Jan-23 01:33N 54°09' E 012°07'0 0.0
2015-Jan-23 00:27N 54°09' E 012°07'0 0.0
2015-Jan-22 23:33N 54°09' E 012°07'0 0.0
2015-Jan-22 22:33N 54°09' E 012°07'0 0.0
2015-Jan-22 17:27N 54°09' E 012°07'0 0.0
2015-Jan-22 16:27N 54°09' E 012°07'0 0.0
2015-Jan-22 15:12N 54°09' E 012°07'0 0.0
2015-Jan-22 14:33N 54°09' E 012°07'0 0.0
2015-Jan-22 13:30N 54°09' E 012°07'0 0.0
2015-Jan-22 12:33N 54°09' E 012°07'0 0.0
2015-Jan-22 11:32N 54°09' E 012°07'0 0.0
2015-Jan-22 10:33N 54°09' E 012°07'0 0.0
2015-Jan-22 09:32N 54°09' E 012°07'0 0.0
2015-Jan-22 08:32N 54°09' E 012°07'0 0.0
2015-Jan-22 07:32N 54°09' E 012°07'0 0.0
2015-Jan-22 06:29N 54°09' E 012°07'0 0.0
2015-Jan-22 05:32N 54°09' E 012°07'0 0.0
2015-Jan-22 04:32N 54°09' E 012°07'0 0.0
2015-Jan-22 03:32N 54°09' E 012°07'0 0.0
2015-Jan-22 02:32N 54°09' E 012°07'0 0.0
2015-Jan-22 01:14N 54°09' E 012°07'0 0.0
2015-Jan-22 00:08N 54°09' E 012°07'0 0.0
2015-Jan-21 23:32N 54°09' E 012°07'0 0.0
2015-Jan-21 22:50N 54°09' E 012°07'0 0.0
2015-Jan-21 22:44N 54°09' E 012°07'0 0.0
2015-Jan-21 22:32N 54°09' E 012°07'0 0.0
2015-Jan-21 21:14N 54°09' E 012°07'0 0.0
2015-Jan-21 20:32N 54°09' E 012°07'0 0.0
2015-Jan-21 19:26N 54°09' E 012°07'0 0.0
2015-Jan-21 18:32N 54°09' E 012°07'0 0.0
2015-Jan-21 17:29N 54°09' E 012°07'0 0.0
2015-Jan-21 16:32N 54°09' E 012°07'0 0.0
2015-Jan-21 15:32N 54°09' E 012°07'0 0.0
2015-Jan-21 14:29N 54°09' E 012°07'0 0.0
2015-Jan-21 12:20N 54°09' E 012°07'0 0.0
2015-Jan-21 11:23N 54°09' E 012°07'0 0.0
2015-Jan-21 10:23N 54°09' E 012°07'1 0.9
2015-Jan-21 09:33N 54°10' E 012°06'6 5.6
2015-Jan-21 08:33N 54°14' E 012°01'0 0.0
2015-Jan-21 07:17N 54°14' E 012°01'0 0.0
2015-Jan-21 06:32N 54°14' E 012°01'0 0.0
2015-Jan-21 05:32N 54°14' E 012°01'0 0.1
2015-Jan-21 04:11N 54°14' E 012°01'0 0.0
2015-Jan-21 03:23N 54°14' E 012°01'0 0.0
2015-Jan-21 02:32N 54°14' E 012°01'0 0.0
2015-Jan-21 00:32N 54°14' E 012°01'0 0.0
2015-Jan-20 23:20N 54°14' E 012°01'0 0.0
2015-Jan-20 21:31N 54°14' E 012°01'0 0.0
2015-Jan-20 20:14N 54°14' E 012°01'0 0.0
2015-Jan-20 19:08N 54°14' E 012°01'0 0.0
2015-Jan-20 17:22N 54°14' E 012°01'0 0.0
2015-Jan-20 16:28N 54°14' E 012°01'0 0.0
2015-Jan-20 15:13N 54°14' E 012°01'0 0.0
2015-Jan-20 14:28N 54°14' E 012°01'0 0.0
2015-Jan-20 13:13N 54°14' E 012°01'0 0.0
2015-Jan-20 12:31N 54°14' E 012°01'0 0.0
2015-Jan-20 11:07N 54°14' E 012°01'0 0.0
2015-Jan-20 09:28N 54°14' E 012°01'0 0.0
2015-Jan-20 08:31N 54°14' E 012°01'0 0.0
2015-Jan-20 07:19N 54°14' E 012°01'0 0.0
2015-Jan-20 06:25N 54°14' E 012°01'0 0.0
2015-Jan-20 05:25N 54°14' E 012°01'0 0.0
2015-Jan-20 04:31N 54°14' E 012°01'0 0.0
2015-Jan-20 02:07N 54°14' E 012°01'0 0.0
2015-Jan-20 01:22N 54°14' E 012°01'0 0.0
2015-Jan-20 00:31N 54°14' E 012°01'0 0.0
2015-Jan-19 23:31N 54°14' E 012°01'0 0.0
2015-Jan-19 22:25N 54°14' E 012°01'0 0.0
2015-Jan-19 21:22N 54°14' E 012°01'0 0.0
2015-Jan-19 20:13N 54°14' E 012°01'0 0.0
2015-Jan-19 18:31N 54°14' E 012°01'0 0.0
2015-Jan-19 17:16N 54°14' E 012°01'0 0.0
2015-Jan-19 16:25N 54°14' E 012°01'0 0.0
2015-Jan-19 15:10N 54°14' E 012°01'0 0.0
2015-Jan-19 13:25N 54°14' E 012°01'0 0.0
2015-Jan-19 12:28N 54°14' E 012°01'0 0.0
2015-Jan-19 11:09N 54°14' E 012°01'0 0.0
2015-Jan-19 10:33N 54°14' E 012°01'0 0.0
2015-Jan-19 09:33N 54°14' E 012°01'0 0.0
2015-Jan-19 08:30N 54°14' E 012°01'0 0.0
2015-Jan-19 07:33N 54°14' E 012°01'0 0.0
2015-Jan-19 06:33N 54°14' E 012°01'0 0.0
2015-Jan-19 04:27N 54°14' E 012°01'0 0.0
2015-Jan-19 03:27N 54°14' E 012°01'0 0.0
2015-Jan-19 01:30N 54°14' E 012°01'0 0.0
2015-Jan-19 00:30N 54°14' E 012°01'0 0.0
2015-Jan-18 23:33N 54°14' E 012°01'0 0.0
2015-Jan-18 21:27N 54°14' E 012°01'0 0.0
2015-Jan-18 20:33N 54°14' E 012°01'0 0.0
2015-Jan-18 19:33N 54°14' E 012°01'0 0.0
2015-Jan-18 18:24N 54°14' E 012°01'0 0.0
2015-Jan-18 17:27N 54°14' E 012°01'0 0.0
2015-Jan-18 16:12N 54°14' E 012°01'2 2.2
2015-Jan-18 15:31N 54°15' E 011°59'8 8.5
2015-Jan-18 14:32N 54°22' E 011°50'8 8.3
2015-Jan-18 13:33N 54°26' E 011°39'9 8.6
2015-Jan-18 12:33N 54°31' E 011°26'8 8.2
2015-Jan-18 11:33N 54°34' E 011°13'25 8.5
2015-Jan-18 08:33N 54°31' E 010°29'9 8.9
2015-Jan-18 07:33N 54°27' E 010°16'7 6.9
2015-Jan-18 06:33N 54°22' E 010°09'0 0.0
2015-Jan-18 05:33N 54°22' E 010°09'7 6.6
2015-Jan-18 04:33N 54°21' E 009°58'8 7.8
2015-Jan-18 03:33N 54°20' E 009°44'21 7.1
2015-Jan-18 00:33N 54°05' E 009°19'7 7.0
2015-Jan-17 23:33N 53°58' E 009°15'6 5.9
2015-Jan-17 22:33N 53°54' E 009°09'2 1.8
2015-Jan-17 21:33N 53°53' E 009°06'1 1.0
2015-Jan-17 20:31N 53°53' E 009°04'0 0.0
2015-Jan-17 19:34N 53°53' E 009°04'0 0.0
2015-Jan-17 18:34N 53°53' E 009°04'0 0.1
2015-Jan-17 17:30N 53°53' E 009°04'1 1.1
2015-Jan-17 16:33N 53°52' E 009°02'6 5.6
2015-Jan-17 15:34N 53°50' E 008°53'5 4.9
2015-Jan-17 14:34N 53°51' E 008°45'4 4.4
2015-Jan-17 13:34N 53°55' E 008°41'5 4.9
2015-Jan-17 12:33N 53°58' E 008°34'7 7.3
2015-Jan-17 11:33N 53°59' E 008°22'7 7.4
2015-Jan-17 10:33N 53°59' E 008°10'8 7.9
2015-Jan-17 09:33N 53°57' E 007°57'8 8.4
2015-Jan-17 08:33N 53°55' E 007°43'9 9.0
2015-Jan-17 07:33N 53°53' E 007°28'11 9.2
2015-Jan-17 06:22N 53°51' E 007°10'38 9.6
2015-Jan-17 02:25N 53°41' E 006°08'8 9.3
2015-Jan-17 01:33N 53°39' E 005°55'9 8.8
2015-Jan-17 00:34N 53°36' E 005°41'9 8.6
2015-Jan-16 23:34N 53°33' E 005°27'8 8.3
2015-Jan-16 22:34N 53°31' E 005°14'8 8.4
2015-Jan-16 21:34N 53°28' E 005°01'8 8.3
2015-Jan-16 20:34N 53°25' E 004°48'8 7.2
2015-Jan-16 19:29N 53°19' E 004°39'  

Dump ship's entire track history